sensor_id;sensor_type;location;lat;lon;timestamp;P1;durP1;ratioP1;P2;durP2;ratioP2
64854;SDS011;51321;50.428;8.378;2022-12-01T00:02:20;9.98;;;5.45;;
64854;SDS011;51321;50.428;8.378;2022-12-01T00:04:42;7.25;;;5.22;;
64854;SDS011;51321;50.428;8.378;2022-12-01T00:07:06;7.20;;;5.10;;
64854;SDS011;51321;50.428;8.378;2022-12-01T00:09:29;9.07;;;5.07;;
64854;SDS011;51321;50.428;8.378;2022-12-01T00:12:08;7.70;;;4.82;;
64854;SDS011;51321;50.428;8.378;2022-12-01T00:14:30;8.07;;;4.53;;
64854;SDS011;51321;50.428;8.378;2022-12-01T00:16:52;8.27;;;4.70;;
64854;SDS011;51321;50.428;8.378;2022-12-01T00:19:14;7.43;;;4.95;;
64854;SDS011;51321;50.428;8.378;2022-12-01T00:21:37;8.43;;;5.13;;
64854;SDS011;51321;50.428;8.378;2022-12-01T00:24:00;6.63;;;4.22;;
64854;SDS011;51321;50.428;8.378;2022-12-01T00:26:22;9.02;;;5.03;;
64854;SDS011;51321;50.428;8.378;2022-12-01T00:28:47;7.88;;;5.00;;
64854;SDS011;51321;50.428;8.378;2022-12-01T00:31:10;7.38;;;4.90;;
64854;SDS011;51321;50.428;8.378;2022-12-01T00:33:33;6.75;;;4.57;;
64854;SDS011;51321;50.428;8.378;2022-12-01T00:35:57;5.80;;;4.28;;
64854;SDS011;51321;50.428;8.378;2022-12-01T00:38:20;11.50;;;4.55;;
64854;SDS011;51321;50.428;8.378;2022-12-01T00:40:43;9.68;;;5.53;;
64854;SDS011;51321;50.428;8.378;2022-12-01T00:43:05;8.73;;;5.43;;
64854;SDS011;51321;50.428;8.378;2022-12-01T00:45:27;8.90;;;5.13;;
64854;SDS011;51321;50.428;8.378;2022-12-01T00:47:49;9.68;;;5.20;;
64854;SDS011;51321;50.428;8.378;2022-12-01T00:50:12;6.38;;;4.88;;
64854;SDS011;51321;50.428;8.378;2022-12-01T00:52:34;8.88;;;5.50;;
64854;SDS011;51321;50.428;8.378;2022-12-01T00:54:56;8.05;;;5.75;;
64854;SDS011;51321;50.428;8.378;2022-12-01T00:57:20;11.52;;;5.63;;
64854;SDS011;51321;50.428;8.378;2022-12-01T00:59:42;7.13;;;5.00;;
64854;SDS011;51321;50.428;8.378;2022-12-01T01:02:05;8.45;;;5.15;;
64854;SDS011;51321;50.428;8.378;2022-12-01T01:04:28;8.50;;;4.93;;
64854;SDS011;51321;50.428;8.378;2022-12-01T01:06:50;8.00;;;4.00;;
64854;SDS011;51321;50.428;8.378;2022-12-01T01:09:12;5.70;;;4.15;;
64854;SDS011;51321;50.428;8.378;2022-12-01T01:11:35;7.45;;;4.15;;
64854;SDS011;51321;50.428;8.378;2022-12-01T01:13:59;6.22;;;3.55;;
64854;SDS011;51321;50.428;8.378;2022-12-01T01:16:21;4.78;;;3.20;;
64854;SDS011;51321;50.428;8.378;2022-12-01T01:18:43;6.00;;;3.60;;
64854;SDS011;51321;50.428;8.378;2022-12-01T01:21:06;5.65;;;3.88;;
64854;SDS011;51321;50.428;8.378;2022-12-01T01:23:31;5.45;;;3.40;;
64854;SDS011;51321;50.428;8.378;2022-12-01T01:25:59;4.97;;;2.78;;
64854;SDS011;51321;50.428;8.378;2022-12-01T01:28:22;3.22;;;2.13;;
64854;SDS011;51321;50.428;8.378;2022-12-01T01:30:45;5.40;;;2.90;;
64854;SDS011;51321;50.428;8.378;2022-12-01T01:33:07;4.63;;;2.63;;
64854;SDS011;51321;50.428;8.378;2022-12-01T01:35:29;3.90;;;2.70;;
64854;SDS011;51321;50.428;8.378;2022-12-01T01:37:52;3.60;;;2.00;;
64854;SDS011;51321;50.428;8.378;2022-12-01T01:40:14;3.35;;;1.83;;
64854;SDS011;51321;50.428;8.378;2022-12-01T01:42:36;3.10;;;1.73;;
64854;SDS011;51321;50.428;8.378;2022-12-01T01:44:58;4.13;;;2.80;;
64854;SDS011;51321;50.428;8.378;2022-12-01T01:47:22;3.70;;;2.45;;
64854;SDS011;51321;50.428;8.378;2022-12-01T01:49:48;3.90;;;2.15;;
64854;SDS011;51321;50.428;8.378;2022-12-01T01:52:10;3.63;;;1.98;;
64854;SDS011;51321;50.428;8.378;2022-12-01T01:54:33;6.97;;;2.88;;
64854;SDS011;51321;50.428;8.378;2022-12-01T01:57:00;6.13;;;3.40;;
64854;SDS011;51321;50.428;8.378;2022-12-01T01:59:25;4.85;;;3.05;;
64854;SDS011;51321;50.428;8.378;2022-12-01T02:01:56;3.80;;;2.72;;
64854;SDS011;51321;50.428;8.378;2022-12-01T02:04:23;4.47;;;2.85;;
64854;SDS011;51321;50.428;8.378;2022-12-01T02:06:46;4.28;;;2.50;;
64854;SDS011;51321;50.428;8.378;2022-12-01T02:09:09;3.28;;;2.20;;
64854;SDS011;51321;50.428;8.378;2022-12-01T02:11:37;4.43;;;2.80;;
64854;SDS011;51321;50.428;8.378;2022-12-01T02:14:20;6.45;;;2.97;;
64854;SDS011;51321;50.428;8.378;2022-12-01T02:16:57;6.72;;;4.50;;
64854;SDS011;51321;50.428;8.378;2022-12-01T02:19:32;9.05;;;5.85;;
64854;SDS011;51321;50.428;8.378;2022-12-01T02:22:08;9.75;;;6.15;;
64854;SDS011;51321;50.428;8.378;2022-12-01T02:24:44;10.00;;;6.75;;
64854;SDS011;51321;50.428;8.378;2022-12-01T02:27:21;10.88;;;6.57;;
64854;SDS011;51321;50.428;8.378;2022-12-01T02:29:57;14.88;;;7.57;;
64854;SDS011;51321;50.428;8.378;2022-12-01T02:32:28;14.32;;;8.98;;
64854;SDS011;51321;50.428;8.378;2022-12-01T02:34:55;17.20;;;9.90;;
64854;SDS011;51321;50.428;8.378;2022-12-01T02:37:22;13.75;;;9.98;;
64854;SDS011;51321;50.428;8.378;2022-12-01T02:39:51;16.40;;;11.73;;
64854;SDS011;51321;50.428;8.378;2022-12-01T02:42:18;16.30;;;10.80;;
64854;SDS011;51321;50.428;8.378;2022-12-01T02:45:01;18.15;;;12.73;;
64854;SDS011;51321;50.428;8.378;2022-12-01T02:47:27;18.20;;;12.00;;
64854;SDS011;51321;50.428;8.378;2022-12-01T02:49:50;18.52;;;12.48;;
64854;SDS011;51321;50.428;8.378;2022-12-01T02:52:17;19.77;;;13.05;;
64854;SDS011;51321;50.428;8.378;2022-12-01T02:54:41;20.83;;;12.93;;
64854;SDS011;51321;50.428;8.378;2022-12-01T02:57:05;22.02;;;13.68;;
64854;SDS011;51321;50.428;8.378;2022-12-01T02:59:29;20.95;;;13.95;;
64854;SDS011;51321;50.428;8.378;2022-12-01T03:01:55;21.85;;;14.20;;
64854;SDS011;51321;50.428;8.378;2022-12-01T03:04:32;25.58;;;15.13;;
64854;SDS011;51321;50.428;8.378;2022-12-01T03:07:04;22.73;;;14.85;;
64854;SDS011;51321;50.428;8.378;2022-12-01T03:09:37;21.50;;;14.48;;
64854;SDS011;51321;50.428;8.378;2022-12-01T03:12:09;19.90;;;13.73;;
64854;SDS011;51321;50.428;8.378;2022-12-01T03:14:41;23.42;;;14.40;;
64854;SDS011;51321;50.428;8.378;2022-12-01T03:17:07;21.08;;;14.65;;
64854;SDS011;51321;50.428;8.378;2022-12-01T03:19:36;20.27;;;14.35;;
64854;SDS011;51321;50.428;8.378;2022-12-01T03:22:04;21.42;;;14.45;;
64854;SDS011;51321;50.428;8.378;2022-12-01T03:24:31;27.83;;;16.65;;
64854;SDS011;51321;50.428;8.378;2022-12-01T03:26:56;24.98;;;14.43;;
64854;SDS011;51321;50.428;8.378;2022-12-01T03:29:22;23.55;;;16.00;;
64854;SDS011;51321;50.428;8.378;2022-12-01T03:31:48;25.40;;;17.48;;
64854;SDS011;51321;50.428;8.378;2022-12-01T03:34:15;22.83;;;14.50;;
64854;SDS011;51321;50.428;8.378;2022-12-01T03:36:45;24.17;;;16.65;;
64854;SDS011;51321;50.428;8.378;2022-12-01T03:39:11;24.90;;;15.20;;
64854;SDS011;51321;50.428;8.378;2022-12-01T03:41:38;23.10;;;15.70;;
64854;SDS011;51321;50.428;8.378;2022-12-01T03:44:06;21.13;;;15.02;;
64854;SDS011;51321;50.428;8.378;2022-12-01T03:46:32;25.35;;;16.65;;
64854;SDS011;51321;50.428;8.378;2022-12-01T03:49:01;28.13;;;17.20;;
64854;SDS011;51321;50.428;8.378;2022-12-01T03:51:26;23.98;;;16.55;;
64854;SDS011;51321;50.428;8.378;2022-12-01T03:53:55;24.77;;;17.65;;
64854;SDS011;51321;50.428;8.378;2022-12-01T03:56:23;24.25;;;17.35;;
64854;SDS011;51321;50.428;8.378;2022-12-01T03:58:51;24.50;;;16.48;;
64854;SDS011;51321;50.428;8.378;2022-12-01T04:01:17;24.13;;;16.77;;
64854;SDS011;51321;50.428;8.378;2022-12-01T04:03:41;24.25;;;16.60;;
64854;SDS011;51321;50.428;8.378;2022-12-01T04:06:06;23.98;;;16.58;;
64854;SDS011;51321;50.428;8.378;2022-12-01T04:08:28;25.35;;;16.63;;
64854;SDS011;51321;50.428;8.378;2022-12-01T04:10:54;25.13;;;17.30;;
64854;SDS011;51321;50.428;8.378;2022-12-01T04:13:16;23.55;;;16.50;;
64854;SDS011;51321;50.428;8.378;2022-12-01T04:15:42;24.38;;;17.55;;
64854;SDS011;51321;50.428;8.378;2022-12-01T04:18:04;23.60;;;17.50;;
64854;SDS011;51321;50.428;8.378;2022-12-01T04:20:26;24.35;;;16.02;;
64854;SDS011;51321;50.428;8.378;2022-12-01T04:22:48;27.60;;;17.35;;
64854;SDS011;51321;50.428;8.378;2022-12-01T04:25:10;22.05;;;15.60;;
64854;SDS011;51321;50.428;8.378;2022-12-01T04:27:34;23.55;;;16.50;;
64854;SDS011;51321;50.428;8.378;2022-12-01T04:29:56;25.85;;;17.00;;
64854;SDS011;51321;50.428;8.378;2022-12-01T04:32:18;23.00;;;16.85;;
64854;SDS011;51321;50.428;8.378;2022-12-01T04:34:40;24.77;;;16.73;;
64854;SDS011;51321;50.428;8.378;2022-12-01T04:37:03;29.23;;;17.75;;
64854;SDS011;51321;50.428;8.378;2022-12-01T04:39:25;24.42;;;16.67;;
64854;SDS011;51321;50.428;8.378;2022-12-01T04:41:47;20.80;;;15.30;;
64854;SDS011;51321;50.428;8.378;2022-12-01T04:44:11;22.02;;;15.65;;
64854;SDS011;51321;50.428;8.378;2022-12-01T04:46:33;25.63;;;17.02;;
64854;SDS011;51321;50.428;8.378;2022-12-01T04:48:55;22.33;;;16.58;;
64854;SDS011;51321;50.428;8.378;2022-12-01T04:51:17;25.35;;;16.77;;
64854;SDS011;51321;50.428;8.378;2022-12-01T04:53:41;23.80;;;15.93;;
64854;SDS011;51321;50.428;8.378;2022-12-01T04:56:03;23.70;;;17.25;;
64854;SDS011;51321;50.428;8.378;2022-12-01T04:58:27;24.40;;;16.75;;
64854;SDS011;51321;50.428;8.378;2022-12-01T05:00:51;22.33;;;17.10;;
64854;SDS011;51321;50.428;8.378;2022-12-01T05:03:13;24.75;;;15.98;;
64854;SDS011;51321;50.428;8.378;2022-12-01T05:05:35;25.80;;;16.85;;
64854;SDS011;51321;50.428;8.378;2022-12-01T05:07:58;24.00;;;16.70;;
64854;SDS011;51321;50.428;8.378;2022-12-01T05:10:20;24.67;;;16.67;;
64854;SDS011;51321;50.428;8.378;2022-12-01T05:15:06;27.38;;;15.95;;
64854;SDS011;51321;50.428;8.378;2022-12-01T05:17:31;24.98;;;16.17;;
64854;SDS011;51321;50.428;8.378;2022-12-01T05:19:53;23.40;;;16.88;;
64854;SDS011;51321;50.428;8.378;2022-12-01T05:22:33;22.45;;;15.63;;
64854;SDS011;51321;50.428;8.378;2022-12-01T05:24:55;24.77;;;17.00;;
64854;SDS011;51321;50.428;8.378;2022-12-01T05:27:17;26.70;;;16.98;;
64854;SDS011;51321;50.428;8.378;2022-12-01T05:29:39;27.25;;;16.67;;
64854;SDS011;51321;50.428;8.378;2022-12-01T05:32:01;27.77;;;18.23;;
64854;SDS011;51321;50.428;8.378;2022-12-01T05:34:25;25.45;;;17.98;;
64854;SDS011;51321;50.428;8.378;2022-12-01T05:36:47;27.42;;;18.35;;
64854;SDS011;51321;50.428;8.378;2022-12-01T05:39:09;26.83;;;17.65;;
64854;SDS011;51321;50.428;8.378;2022-12-01T05:41:31;25.45;;;18.30;;
64854;SDS011;51321;50.428;8.378;2022-12-01T05:43:53;26.77;;;17.30;;
64854;SDS011;51321;50.428;8.378;2022-12-01T05:46:15;25.95;;;18.63;;
64854;SDS011;51321;50.428;8.378;2022-12-01T05:48:38;32.50;;;19.90;;
64854;SDS011;51321;50.428;8.378;2022-12-01T05:51:07;33.65;;;21.58;;
64854;SDS011;51321;50.428;8.378;2022-12-01T05:53:29;32.58;;;20.75;;
64854;SDS011;51321;50.428;8.378;2022-12-01T05:55:52;31.65;;;20.63;;
64854;SDS011;51321;50.428;8.378;2022-12-01T05:58:14;31.25;;;20.10;;
64854;SDS011;51321;50.428;8.378;2022-12-01T06:00:37;29.02;;;19.17;;
64854;SDS011;51321;50.428;8.378;2022-12-01T06:02:59;30.65;;;20.23;;
64854;SDS011;51321;50.428;8.378;2022-12-01T06:05:22;31.67;;;19.98;;
64854;SDS011;51321;50.428;8.378;2022-12-01T06:07:45;31.40;;;20.15;;
64854;SDS011;51321;50.428;8.378;2022-12-01T06:10:08;30.42;;;21.10;;
64854;SDS011;51321;50.428;8.378;2022-12-01T06:12:32;36.55;;;21.33;;
64854;SDS011;51321;50.428;8.378;2022-12-01T06:14:54;33.30;;;21.52;;
64854;SDS011;51321;50.428;8.378;2022-12-01T06:17:19;32.45;;;20.30;;
64854;SDS011;51321;50.428;8.378;2022-12-01T06:19:41;37.42;;;22.13;;
64854;SDS011;51321;50.428;8.378;2022-12-01T06:22:04;29.83;;;20.27;;
64854;SDS011;51321;50.428;8.378;2022-12-01T06:24:27;31.77;;;20.63;;
64854;SDS011;51321;50.428;8.378;2022-12-01T06:26:49;34.40;;;21.38;;
64854;SDS011;51321;50.428;8.378;2022-12-01T06:29:11;30.90;;;20.63;;
64854;SDS011;51321;50.428;8.378;2022-12-01T06:31:33;33.08;;;20.52;;
64854;SDS011;51321;50.428;8.378;2022-12-01T06:33:56;32.80;;;21.67;;
64854;SDS011;51321;50.428;8.378;2022-12-01T06:36:18;31.10;;;20.77;;
64854;SDS011;51321;50.428;8.378;2022-12-01T06:38:40;34.40;;;20.92;;
64854;SDS011;51321;50.428;8.378;2022-12-01T06:41:04;31.20;;;19.85;;
64854;SDS011;51321;50.428;8.378;2022-12-01T06:43:26;30.40;;;20.33;;
64854;SDS011;51321;50.428;8.378;2022-12-01T06:45:48;30.55;;;20.50;;
64854;SDS011;51321;50.428;8.378;2022-12-01T06:48:10;32.08;;;21.77;;
64854;SDS011;51321;50.428;8.378;2022-12-01T06:50:33;34.25;;;22.75;;
64854;SDS011;51321;50.428;8.378;2022-12-01T06:52:55;33.45;;;20.20;;
64854;SDS011;51321;50.428;8.378;2022-12-01T06:55:17;31.33;;;20.70;;
64854;SDS011;51321;50.428;8.378;2022-12-01T06:57:40;30.58;;;18.67;;
64854;SDS011;51321;50.428;8.378;2022-12-01T07:00:03;34.22;;;20.95;;
64854;SDS011;51321;50.428;8.378;2022-12-01T07:02:28;33.60;;;20.88;;
64854;SDS011;51321;50.428;8.378;2022-12-01T07:04:50;30.67;;;20.55;;
64854;SDS011;51321;50.428;8.378;2022-12-01T07:07:12;35.95;;;21.33;;
64854;SDS011;51321;50.428;8.378;2022-12-01T07:09:34;36.72;;;20.75;;
64854;SDS011;51321;50.428;8.378;2022-12-01T07:11:56;33.45;;;20.92;;
64854;SDS011;51321;50.428;8.378;2022-12-01T07:14:21;30.50;;;19.85;;
64854;SDS011;51321;50.428;8.378;2022-12-01T07:16:44;31.15;;;19.38;;
64854;SDS011;51321;50.428;8.378;2022-12-01T07:19:06;33.17;;;20.30;;
64854;SDS011;51321;50.428;8.378;2022-12-01T07:21:28;32.83;;;20.67;;
64854;SDS011;51321;50.428;8.378;2022-12-01T07:23:50;34.22;;;20.77;;
64854;SDS011;51321;50.428;8.378;2022-12-01T07:26:16;34.03;;;20.92;;
64854;SDS011;51321;50.428;8.378;2022-12-01T07:28:38;35.70;;;21.38;;
64854;SDS011;51321;50.428;8.378;2022-12-01T07:31:03;35.15;;;20.70;;
64854;SDS011;51321;50.428;8.378;2022-12-01T07:33:26;30.60;;;19.92;;
64854;SDS011;51321;50.428;8.378;2022-12-01T07:35:48;32.78;;;19.52;;
64854;SDS011;51321;50.428;8.378;2022-12-01T07:38:13;35.00;;;21.23;;
64854;SDS011;51321;50.428;8.378;2022-12-01T07:40:35;30.73;;;19.27;;
64854;SDS011;51321;50.428;8.378;2022-12-01T07:42:57;29.80;;;19.98;;
64854;SDS011;51321;50.428;8.378;2022-12-01T07:45:19;30.85;;;20.25;;
64854;SDS011;51321;50.428;8.378;2022-12-01T07:47:43;34.28;;;20.52;;
64854;SDS011;51321;50.428;8.378;2022-12-01T07:50:06;35.40;;;20.92;;
64854;SDS011;51321;50.428;8.378;2022-12-01T07:52:28;32.10;;;19.55;;
64854;SDS011;51321;50.428;8.378;2022-12-01T07:54:51;30.42;;;19.10;;
64854;SDS011;51321;50.428;8.378;2022-12-01T07:57:13;32.55;;;20.40;;
64854;SDS011;51321;50.428;8.378;2022-12-01T07:59:35;33.85;;;19.85;;
64854;SDS011;51321;50.428;8.378;2022-12-01T08:01:57;29.88;;;19.55;;
64854;SDS011;51321;50.428;8.378;2022-12-01T08:04:20;29.52;;;18.17;;
64854;SDS011;51321;50.428;8.378;2022-12-01T08:06:42;28.60;;;17.98;;
64854;SDS011;51321;50.428;8.378;2022-12-01T08:11:27;28.58;;;17.95;;
64854;SDS011;51321;50.428;8.378;2022-12-01T08:13:50;33.67;;;20.13;;
64854;SDS011;51321;50.428;8.378;2022-12-01T08:16:13;32.63;;;19.02;;
64854;SDS011;51321;50.428;8.378;2022-12-01T08:18:37;26.48;;;17.40;;
64854;SDS011;51321;50.428;8.378;2022-12-01T08:21:02;28.67;;;18.10;;
64854;SDS011;51321;50.428;8.378;2022-12-01T08:23:24;28.45;;;17.95;;
64854;SDS011;51321;50.428;8.378;2022-12-01T08:25:46;26.65;;;18.23;;
64854;SDS011;51321;50.428;8.378;2022-12-01T08:28:09;29.33;;;17.95;;
64854;SDS011;51321;50.428;8.378;2022-12-01T08:30:31;31.80;;;17.80;;
64854;SDS011;51321;50.428;8.378;2022-12-01T08:32:53;26.75;;;16.58;;
64854;SDS011;51321;50.428;8.378;2022-12-01T08:35:16;27.33;;;17.05;;
64854;SDS011;51321;50.428;8.378;2022-12-01T08:37:39;26.52;;;15.35;;
64854;SDS011;51321;50.428;8.378;2022-12-01T08:40:01;24.27;;;16.15;;
64854;SDS011;51321;50.428;8.378;2022-12-01T08:44:46;29.67;;;15.48;;
64854;SDS011;51321;50.428;8.378;2022-12-01T08:47:08;26.38;;;16.98;;
64854;SDS011;51321;50.428;8.378;2022-12-01T08:49:30;25.55;;;17.17;;
64854;SDS011;51321;50.428;8.378;2022-12-01T08:51:52;24.92;;;14.88;;
64854;SDS011;51321;50.428;8.378;2022-12-01T08:54:17;23.90;;;16.05;;
64854;SDS011;51321;50.428;8.378;2022-12-01T08:56:40;25.50;;;16.52;;
64854;SDS011;51321;50.428;8.378;2022-12-01T08:59:04;26.10;;;16.45;;
64854;SDS011;51321;50.428;8.378;2022-12-01T09:01:27;24.27;;;16.38;;
64854;SDS011;51321;50.428;8.378;2022-12-01T09:06:24;27.63;;;17.52;;
64854;SDS011;51321;50.428;8.378;2022-12-01T09:08:46;25.73;;;16.27;;
64854;SDS011;51321;50.428;8.378;2022-12-01T09:13:33;28.55;;;17.13;;
64854;SDS011;51321;50.428;8.378;2022-12-01T09:15:57;26.13;;;16.98;;
64854;SDS011;51321;50.428;8.378;2022-12-01T09:18:20;23.52;;;15.75;;
64854;SDS011;51321;50.428;8.378;2022-12-01T09:20:42;24.70;;;15.98;;
64854;SDS011;51321;50.428;8.378;2022-12-01T09:23:05;27.92;;;16.92;;
64854;SDS011;51321;50.428;8.378;2022-12-01T09:25:27;27.00;;;16.73;;
64854;SDS011;51321;50.428;8.378;2022-12-01T09:27:51;24.15;;;15.70;;
64854;SDS011;51321;50.428;8.378;2022-12-01T09:30:13;27.55;;;17.10;;
64854;SDS011;51321;50.428;8.378;2022-12-01T09:32:36;29.45;;;17.95;;
64854;SDS011;51321;50.428;8.378;2022-12-01T09:34:58;28.77;;;18.52;;
64854;SDS011;51321;50.428;8.378;2022-12-01T09:37:20;25.52;;;17.30;;
64854;SDS011;51321;50.428;8.378;2022-12-01T09:39:42;26.50;;;16.58;;
64854;SDS011;51321;50.428;8.378;2022-12-01T09:42:06;22.83;;;16.00;;
64854;SDS011;51321;50.428;8.378;2022-12-01T09:44:38;27.52;;;17.67;;
64854;SDS011;51321;50.428;8.378;2022-12-01T09:47:05;26.95;;;17.23;;
64854;SDS011;51321;50.428;8.378;2022-12-01T09:49:37;28.05;;;17.27;;
64854;SDS011;51321;50.428;8.378;2022-12-01T09:52:03;26.35;;;17.02;;
64854;SDS011;51321;50.428;8.378;2022-12-01T09:54:25;23.98;;;15.73;;
64854;SDS011;51321;50.428;8.378;2022-12-01T09:56:50;25.58;;;16.90;;
64854;SDS011;51321;50.428;8.378;2022-12-01T09:59:17;25.73;;;16.55;;
64854;SDS011;51321;50.428;8.378;2022-12-01T10:01:45;24.23;;;16.00;;
64854;SDS011;51321;50.428;8.378;2022-12-01T10:04:10;22.60;;;15.57;;
64854;SDS011;51321;50.428;8.378;2022-12-01T10:06:39;25.83;;;16.08;;
64854;SDS011;51321;50.428;8.378;2022-12-01T10:09:11;25.92;;;16.40;;
64854;SDS011;51321;50.428;8.378;2022-12-01T10:11:41;24.10;;;16.00;;
64854;SDS011;51321;50.428;8.378;2022-12-01T10:14:08;24.45;;;16.48;;
64854;SDS011;51321;50.428;8.378;2022-12-01T10:16:36;23.15;;;15.15;;
64854;SDS011;51321;50.428;8.378;2022-12-01T10:19:06;24.98;;;16.33;;
64854;SDS011;51321;50.428;8.378;2022-12-01T10:21:38;23.02;;;15.30;;
64854;SDS011;51321;50.428;8.378;2022-12-01T10:24:12;23.25;;;15.73;;
64854;SDS011;51321;50.428;8.378;2022-12-01T10:26:48;23.65;;;15.70;;
64854;SDS011;51321;50.428;8.378;2022-12-01T10:29:15;22.67;;;15.45;;
64854;SDS011;51321;50.428;8.378;2022-12-01T10:31:49;25.23;;;16.80;;
64854;SDS011;51321;50.428;8.378;2022-12-01T10:34:16;22.67;;;15.15;;
64854;SDS011;51321;50.428;8.378;2022-12-01T10:36:40;23.50;;;16.35;;
64854;SDS011;51321;50.428;8.378;2022-12-01T10:39:03;23.20;;;15.85;;
64854;SDS011;51321;50.428;8.378;2022-12-01T10:41:27;22.10;;;15.13;;
64854;SDS011;51321;50.428;8.378;2022-12-01T10:43:54;23.33;;;15.63;;
64854;SDS011;51321;50.428;8.378;2022-12-01T10:46:28;20.67;;;14.98;;
64854;SDS011;51321;50.428;8.378;2022-12-01T10:48:56;20.75;;;14.00;;
64854;SDS011;51321;50.428;8.378;2022-12-01T10:51:22;23.05;;;15.63;;
64854;SDS011;51321;50.428;8.378;2022-12-01T10:53:44;19.40;;;14.05;;
64854;SDS011;51321;50.428;8.378;2022-12-01T10:56:07;18.33;;;13.75;;
64854;SDS011;51321;50.428;8.378;2022-12-01T10:58:32;22.77;;;15.90;;
64854;SDS011;51321;50.428;8.378;2022-12-01T11:01:00;19.08;;;13.75;;
64854;SDS011;51321;50.428;8.378;2022-12-01T11:03:26;21.27;;;14.20;;
64854;SDS011;51321;50.428;8.378;2022-12-01T11:05:51;21.92;;;16.38;;
64854;SDS011;51321;50.428;8.378;2022-12-01T11:08:21;21.13;;;14.32;;
64854;SDS011;51321;50.428;8.378;2022-12-01T11:10:46;19.45;;;13.90;;
64854;SDS011;51321;50.428;8.378;2022-12-01T11:13:12;18.58;;;13.90;;
64854;SDS011;51321;50.428;8.378;2022-12-01T11:15:40;21.70;;;14.40;;
64854;SDS011;51321;50.428;8.378;2022-12-01T11:18:19;23.02;;;15.00;;
64854;SDS011;51321;50.428;8.378;2022-12-01T11:20:42;20.10;;;14.40;;
64854;SDS011;51321;50.428;8.378;2022-12-01T11:23:23;25.75;;;20.98;;
64854;SDS011;51321;50.428;8.378;2022-12-01T11:25:54;20.92;;;14.00;;
64854;SDS011;51321;50.428;8.378;2022-12-01T11:28:21;21.63;;;15.48;;
64854;SDS011;51321;50.428;8.378;2022-12-01T11:33:06;19.33;;;14.15;;
64854;SDS011;51321;50.428;8.378;2022-12-01T11:35:35;22.95;;;15.13;;
64854;SDS011;51321;50.428;8.378;2022-12-01T11:37:59;20.80;;;15.15;;
64854;SDS011;51321;50.428;8.378;2022-12-01T11:40:25;19.33;;;14.23;;
64854;SDS011;51321;50.428;8.378;2022-12-01T11:42:49;21.92;;;14.82;;
64854;SDS011;51321;50.428;8.378;2022-12-01T11:45:22;21.65;;;14.90;;
64854;SDS011;51321;50.428;8.378;2022-12-01T11:47:59;23.38;;;15.13;;
64854;SDS011;51321;50.428;8.378;2022-12-01T11:50:26;22.25;;;15.65;;
64854;SDS011;51321;50.428;8.378;2022-12-01T11:52:49;20.35;;;14.30;;
64854;SDS011;51321;50.428;8.378;2022-12-01T11:55:24;23.75;;;15.65;;
64854;SDS011;51321;50.428;8.378;2022-12-01T11:57:49;20.88;;;15.80;;
64854;SDS011;51321;50.428;8.378;2022-12-01T12:00:14;25.30;;;18.83;;
64854;SDS011;51321;50.428;8.378;2022-12-01T12:02:41;22.33;;;15.35;;
64854;SDS011;51321;50.428;8.378;2022-12-01T12:08:07;22.52;;;15.88;;
64854;SDS011;51321;50.428;8.378;2022-12-01T12:10:40;25.98;;;16.42;;
64854;SDS011;51321;50.428;8.378;2022-12-01T12:13:11;23.70;;;14.85;;
64854;SDS011;51321;50.428;8.378;2022-12-01T12:15:49;21.45;;;13.88;;
64854;SDS011;51321;50.428;8.378;2022-12-01T12:18:27;24.10;;;15.47;;
64854;SDS011;51321;50.428;8.378;2022-12-01T12:23:32;22.45;;;14.55;;
64854;SDS011;51321;50.428;8.378;2022-12-01T12:26:16;20.10;;;14.32;;
64854;SDS011;51321;50.428;8.378;2022-12-01T12:31:39;23.10;;;14.20;;
64854;SDS011;51321;50.428;8.378;2022-12-01T12:34:16;22.58;;;14.32;;
64854;SDS011;51321;50.428;8.378;2022-12-01T12:36:49;25.20;;;15.30;;
64854;SDS011;51321;50.428;8.378;2022-12-01T12:39:22;20.83;;;13.50;;
64854;SDS011;51321;50.428;8.378;2022-12-01T12:41:54;21.63;;;14.85;;
64854;SDS011;51321;50.428;8.378;2022-12-01T12:44:22;20.25;;;13.18;;
64854;SDS011;51321;50.428;8.378;2022-12-01T12:47:02;20.13;;;13.75;;
64854;SDS011;51321;50.428;8.378;2022-12-01T12:49:31;20.02;;;13.50;;
64854;SDS011;51321;50.428;8.378;2022-12-01T12:52:00;19.48;;;12.85;;
64854;SDS011;51321;50.428;8.378;2022-12-01T12:54:27;18.40;;;13.18;;
64854;SDS011;51321;50.428;8.378;2022-12-01T12:56:56;19.27;;;13.80;;
64854;SDS011;51321;50.428;8.378;2022-12-01T12:59:23;21.88;;;13.95;;
64854;SDS011;51321;50.428;8.378;2022-12-01T13:01:54;19.02;;;13.25;;
64854;SDS011;51321;50.428;8.378;2022-12-01T13:04:21;19.67;;;13.60;;
64854;SDS011;51321;50.428;8.378;2022-12-01T13:06:48;19.67;;;13.25;;
64854;SDS011;51321;50.428;8.378;2022-12-01T13:09:14;21.55;;;14.05;;
64854;SDS011;51321;50.428;8.378;2022-12-01T13:11:43;18.00;;;12.98;;
64854;SDS011;51321;50.428;8.378;2022-12-01T13:14:12;19.30;;;13.90;;
64854;SDS011;51321;50.428;8.378;2022-12-01T13:16:42;18.17;;;13.02;;
64854;SDS011;51321;50.428;8.378;2022-12-01T13:19:10;19.83;;;13.45;;
64854;SDS011;51321;50.428;8.378;2022-12-01T13:21:35;19.88;;;13.35;;
64854;SDS011;51321;50.428;8.378;2022-12-01T13:24:01;18.67;;;12.48;;
64854;SDS011;51321;50.428;8.378;2022-12-01T13:26:25;18.33;;;13.13;;
64854;SDS011;51321;50.428;8.378;2022-12-01T13:28:48;17.63;;;12.75;;
64854;SDS011;51321;50.428;8.378;2022-12-01T13:31:13;18.20;;;12.57;;
64854;SDS011;51321;50.428;8.378;2022-12-01T13:33:43;18.58;;;12.65;;
64854;SDS011;51321;50.428;8.378;2022-12-01T13:36:13;18.05;;;12.48;;
64854;SDS011;51321;50.428;8.378;2022-12-01T13:38:35;18.73;;;12.35;;
64854;SDS011;51321;50.428;8.378;2022-12-01T13:41:12;21.38;;;13.85;;
64854;SDS011;51321;50.428;8.378;2022-12-01T13:43:54;18.23;;;12.63;;
64854;SDS011;51321;50.428;8.378;2022-12-01T13:46:26;18.95;;;12.18;;
64854;SDS011;51321;50.428;8.378;2022-12-01T13:48:52;19.33;;;12.85;;
64854;SDS011;51321;50.428;8.378;2022-12-01T13:51:16;18.88;;;13.00;;
64854;SDS011;51321;50.428;8.378;2022-12-01T13:53:39;21.55;;;13.73;;
64854;SDS011;51321;50.428;8.378;2022-12-01T13:56:37;19.70;;;12.70;;
64854;SDS011;51321;50.428;8.378;2022-12-01T14:02:12;18.58;;;12.10;;
64854;SDS011;51321;50.428;8.378;2022-12-01T14:04:37;18.20;;;11.95;;
64854;SDS011;51321;50.428;8.378;2022-12-01T14:09:57;15.70;;;10.90;;
64854;SDS011;51321;50.428;8.378;2022-12-01T14:12:29;16.70;;;12.02;;
64854;SDS011;51321;50.428;8.378;2022-12-01T14:14:57;15.98;;;11.20;;
64854;SDS011;51321;50.428;8.378;2022-12-01T14:17:26;15.23;;;10.60;;
64854;SDS011;51321;50.428;8.378;2022-12-01T14:19:50;19.13;;;11.90;;
64854;SDS011;51321;50.428;8.378;2022-12-01T14:22:29;17.50;;;12.07;;
64854;SDS011;51321;50.428;8.378;2022-12-01T14:24:53;17.67;;;12.02;;
64854;SDS011;51321;50.428;8.378;2022-12-01T14:27:16;17.30;;;12.23;;
64854;SDS011;51321;50.428;8.378;2022-12-01T14:29:56;18.00;;;12.63;;
64854;SDS011;51321;50.428;8.378;2022-12-01T14:32:19;18.88;;;12.57;;
64854;SDS011;51321;50.428;8.378;2022-12-01T14:34:44;19.48;;;12.70;;
64854;SDS011;51321;50.428;8.378;2022-12-01T14:37:10;17.75;;;11.98;;
64854;SDS011;51321;50.428;8.378;2022-12-01T14:39:35;17.67;;;12.80;;
64854;SDS011;51321;50.428;8.378;2022-12-01T14:42:00;20.58;;;13.60;;
64854;SDS011;51321;50.428;8.378;2022-12-01T14:44:26;20.25;;;13.43;;
64854;SDS011;51321;50.428;8.378;2022-12-01T14:46:51;19.05;;;12.80;;